Time;durP1;ratioP1;P1;durP2;ratioP2;P2;SDS_P1;SDS_P2;PMS_P1;PMS_P2;Temp;Humidity;BMP_temperature;BMP_pressure;BME280_temperature;BME280_humidity;BME280_pressure;Samples;Min_cycle;Max_cycle;Signal;HPM_P1;HPM_P2
2022/08/26 00:01:24;;;;;;;0.10;0.00;;;20.10;99.90;;;;;;4890037;29;20456;-92
2022/08/26 00:03:50;;;;;;;0.10;0.10;;;20.20;99.90;;;;;;4890409;29;20437;-94
2022/08/26 00:06:16;;;;;;;0.10;0.00;;;20.20;99.90;;;;;;4892794;29;20449;-93
2022/08/26 00:08:42;;;;;;;0.10;0.00;;;20.10;99.90;;;;;;4892415;29;20828;-92
2022/08/26 00:11:08;;;;;;;0.10;0.10;;;20.10;99.90;;;;;;4908676;29;20516;-93
2022/08/26 00:13:35;;;;;;;0.10;0.10;;;20.10;99.90;;;;;;4894851;29;20456;-92
2022/08/26 00:16:01;;;;;;;0.10;0.10;;;20.10;99.90;;;;;;4890096;29;21440;-92
2022/08/26 00:18:27;;;;;;;0.10;0.00;;;20.10;99.90;;;;;;4886449;29;20537;-92
2022/08/26 00:20:52;;;;;;;0.10;0.10;;;20.10;99.90;;;;;;4894828;29;20549;-92
2022/08/26 00:23:18;;;;;;;0.10;0.10;;;20.00;99.90;;;;;;4890561;29;20736;-94
2022/08/26 00:25:44;;;;;;;0.10;0.00;;;19.90;99.90;;;;;;4893963;29;20185;-93
2022/08/26 00:28:09;;;;;;;0.10;0.10;;;20.00;99.90;;;;;;4895564;29;20445;-93
2022/08/26 00:30:35;;;;;;;0.10;0.00;;;19.90;99.90;;;;;;4907941;29;20225;-92
2022/08/26 00:33:02;;;;;;;0.10;0.00;;;19.90;99.90;;;;;;4887541;29;20217;-93
2022/08/26 00:35:28;;;;;;;0.10;0.10;;;20.00;99.90;;;;;;4890938;29;20197;-92
2022/08/26 00:37:55;;;;;;;0.10;0.00;;;19.90;99.90;;;;;;4898199;29;20445;-93
2022/08/26 00:40:46;;;;;;;0.10;0.00;;;20.00;99.90;;;;;;4895559;29;20501;-92
2022/08/26 00:43:13;;;;;;;0.10;0.00;;;19.90;99.90;;;;;;4893178;29;20453;-94
2022/08/26 00:46:10;;;;;;;0.10;0.00;;;19.90;99.90;;;;;;4894727;29;21558;-94
2022/08/26 00:48:38;;;;;;;0.10;0.10;;;19.90;99.90;;;;;;4877663;29;20459;-93
2022/08/26 00:51:25;;;;;;;0.10;0.00;;;19.90;99.90;;;;;;4896098;29;20842;-94
2022/08/26 00:53:57;;;;;;;0.10;0.00;;;19.80;99.90;;;;;;4884128;29;20441;-93
2022/08/26 00:56:32;;;;;;;0.10;0.00;;;19.80;99.90;;;;;;4896819;29;20968;-92
2022/08/26 00:59:02;;;;;;;0.10;0.10;;;19.80;99.90;;;;;;4895253;29;21352;-92
2022/08/26 01:01:27;;;;;;;0.10;0.10;;;19.80;99.90;;;;;;4897884;29;20469;-91
2022/08/26 01:03:54;;;;;;;0.10;0.00;;;19.70;99.90;;;;;;4909962;29;20464;-94
2022/08/26 01:06:22;;;;;;;0.10;0.10;;;19.70;99.90;;;;;;4895235;29;20208;-94
2022/08/26 01:08:47;;;;;;;0.10;0.10;;;19.80;99.90;;;;;;4896514;29;20477;-93
2022/08/26 01:11:13;;;;;;;0.10;0.00;;;19.90;99.90;;;;;;4897859;29;20457;-94
2022/08/26 01:13:39;;;;;;;0.10;0.10;;;19.80;99.90;;;;;;4897287;29;20426;-93
2022/08/26 01:16:09;;;;;;;0.10;0.10;;;19.90;99.90;;;;;;4896881;29;20856;-94
2022/08/26 01:18:35;;;;;;;0.10;0.00;;;19.80;99.90;;;;;;4895866;29;20201;-94
2022/08/26 01:21:18;;;;;;;0.10;0.00;;;19.70;99.90;;;;;;4897816;29;20468;-94
2022/08/26 01:23:47;;;;;;;0.10;0.00;;;19.70;99.90;;;;;;4895408;29;20193;-94
2022/08/26 01:26:21;;;;;;;0.10;0.10;;;19.70;99.90;;;;;;4912350;29;20485;-93
2022/08/26 01:28:49;;;;;;;0.10;0.00;;;19.70;99.90;;;;;;4893419;29;20492;-94
2022/08/26 01:31:17;;;;;;;0.10;0.00;;;19.80;99.90;;;;;;4896992;29;21506;-93
2022/08/26 01:34:04;;;;;;;0.10;0.00;;;19.80;99.90;;;;;;4896648;29;20465;-94
2022/08/26 01:36:30;;;;;;;0.10;0.10;;;19.80;99.90;;;;;;4911310;29;20825;-93
2022/08/26 01:38:56;;;;;;;0.10;0.10;;;19.70;99.90;;;;;;4896835;29;20445;-95
2022/08/26 01:41:23;;;;;;;0.10;0.00;;;19.60;99.90;;;;;;4912738;29;20642;-94
2022/08/26 01:43:53;;;;;;;0.10;0.00;;;19.60;99.90;;;;;;4897839;29;20449;-94
2022/08/26 01:46:21;;;;;;;0.10;0.10;;;19.60;99.90;;;;;;4896468;29;20448;-93
2022/08/26 01:48:49;;;;;;;0.10;0.10;;;19.60;99.90;;;;;;4894129;29;20509;-94
2022/08/26 01:51:17;;;;;;;0.10;0.00;;;19.60;99.90;;;;;;4896268;29;20850;-94
2022/08/26 01:53:43;;;;;;;0.10;0.00;;;19.50;99.90;;;;;;4910589;29;20457;-94
2022/08/26 01:56:10;;;;;;;0.10;0.10;;;19.50;99.90;;;;;;4894703;29;20970;-94
2022/08/26 01:58:41;;;;;;;0.10;0.10;;;19.60;99.90;;;;;;4908760;29;20993;-94
2022/08/26 02:01:09;;;;;;;0.10;0.00;;;19.60;99.90;;;;;;4890729;29;20537;-93
2022/08/26 02:03:41;;;;;;;0.10;0.10;;;19.60;99.90;;;;;;4894960;29;20453;-93
2022/08/26 02:06:07;;;;;;;0.10;0.10;;;19.60;99.90;;;;;;4895864;29;20466;-94
2022/08/26 02:08:42;;;;;;;0.10;0.10;;;19.70;99.90;;;;;;4893798;29;20459;-94
2022/08/26 02:11:08;;;;;;;0.10;0.10;;;19.60;99.90;;;;;;4893426;29;20511;-94
2022/08/26 02:13:38;;;;;;;0.10;0.00;;;19.50;99.90;;;;;;4895090;29;20445;-93
2022/08/26 02:16:05;;;;;;;0.10;0.10;;;19.60;99.90;;;;;;4889878;29;20486;-94
2022/08/26 02:18:33;;;;;;;0.10;0.00;;;19.60;99.90;;;;;;4895782;29;20452;-95
2022/08/26 02:20:59;;;;;;;0.10;0.00;;;19.60;99.90;;;;;;4889556;29;20443;-93
2022/08/26 02:23:25;;;;;;;0.10;0.00;;;19.50;99.90;;;;;;4890074;29;20908;-93
2022/08/26 02:25:54;;;;;;;0.10;0.10;;;19.50;99.90;;;;;;4896090;29;20862;-93
2022/08/26 02:28:20;;;;;;;0.10;0.00;;;19.40;99.90;;;;;;4902469;29;20208;-93
2022/08/26 02:30:46;;;;;;;0.10;0.00;;;19.40;99.90;;;;;;4895800;29;20871;-94
2022/08/26 02:33:11;;;;;;;0.10;0.00;;;19.40;99.90;;;;;;4894382;29;20726;-93
2022/08/26 02:35:38;;;;;;;0.10;0.10;;;19.40;99.90;;;;;;4894758;29;20292;-94
2022/08/26 02:38:06;;;;;;;0.10;0.10;;;19.40;99.90;;;;;;4894745;29;20612;-94
2022/08/26 02:40:36;;;;;;;0.10;0.10;;;19.40;99.90;;;;;;4894478;29;20997;-94
2022/08/26 02:43:01;;;;;;;0.10;0.00;;;19.40;99.90;;;;;;4894850;29;20532;-94
2022/08/26 02:45:27;;;;;;;0.10;0.00;;;19.30;99.90;;;;;;4907935;29;20464;-93
2022/08/26 02:47:55;;;;;;;0.10;0.10;;;19.30;99.90;;;;;;4892878;29;20762;-93
2022/08/26 02:50:21;;;;;;;0.10;0.00;;;19.40;99.90;;;;;;4897152;29;20917;-94
2022/08/26 02:52:47;;;;;;;0.10;0.00;;;19.40;99.90;;;;;;4895525;29;20445;-93
2022/08/26 02:55:13;;;;;;;0.10;0.00;;;19.30;99.90;;;;;;4908050;29;20452;-93
2022/08/26 02:57:38;;;;;;;0.10;0.00;;;19.30;99.90;;;;;;4896317;29;20453;-94
2022/08/26 03:00:07;;;;;;;0.10;0.00;;;19.30;99.90;;;;;;4892542;29;20197;-93
2022/08/26 03:02:33;;;;;;;0.10;0.00;;;19.30;99.90;;;;;;4892745;29;20216;-93
2022/08/26 03:04:58;;;;;;;0.10;0.10;;;19.40;99.90;;;;;;4886046;29;20429;-93
2022/08/26 03:07:24;;;;;;;0.10;0.10;;;19.30;99.90;;;;;;4893852;29;20201;-93
2022/08/26 03:09:49;;;;;;;0.10;0.10;;;19.40;99.90;;;;;;4909041;29;20319;-94
2022/08/26 03:12:15;;;;;;;0.10;0.00;;;19.30;99.90;;;;;;4895973;29;20215;-93
2022/08/26 03:14:40;;;;;;;0.10;0.07;;;19.20;99.90;;;;;;4894325;29;20232;-93
2022/08/26 03:17:06;;;;;;;0.10;0.00;;;19.20;99.90;;;;;;4894094;29;20926;-94
2022/08/26 03:19:31;;;;;;;0.10;0.00;;;19.30;99.90;;;;;;4893935;29;20208;-93
2022/08/26 03:21:57;;;;;;;0.10;0.00;;;19.20;99.90;;;;;;4889205;29;20221;-93
2022/08/26 03:24:24;;;;;;;0.10;0.00;;;19.20;99.90;;;;;;4892452;29;20287;-93
2022/08/26 03:26:49;;;;;;;0.10;0.10;;;19.20;99.90;;;;;;4908115;29;20445;-93
2022/08/26 03:31:59;;;;;;;0.10;0.00;;;19.30;99.90;;;;;;4893655;29;20192;-93
2022/08/26 03:34:25;;;;;;;0.10;0.00;;;19.20;99.90;;;;;;4896253;29;20445;-94
2022/08/26 03:36:51;;;;;;;0.10;0.00;;;19.10;99.90;;;;;;4892953;29;20245;-93
2022/08/26 03:39:16;;;;;;;0.10;0.00;;;18.90;99.90;;;;;;4894255;29;20794;-94
2022/08/26 03:41:43;;;;;;;0.10;0.10;;;18.90;99.90;;;;;;4893749;29;20461;-94
2022/08/26 03:44:09;;;;;;;0.10;0.00;;;18.80;99.90;;;;;;4892638;29;20205;-93
2022/08/26 03:46:37;;;;;;;0.10;0.10;;;18.90;99.90;;;;;;4906708;29;20494;-92
2022/08/26 03:49:04;;;;;;;0.10;0.10;;;18.80;99.90;;;;;;4888343;29;20566;-91
2022/08/26 03:51:31;;;;;;;0.10;0.10;;;18.70;99.90;;;;;;4892216;29;20973;-93
2022/08/26 03:53:59;;;;;;;0.10;0.10;;;18.70;99.90;;;;;;4888005;29;20463;-93
2022/08/26 03:56:25;;;;;;;0.10;0.10;;;18.60;99.90;;;;;;4884844;29;20461;-93
2022/08/26 03:58:51;;;;;;;0.10;0.10;;;18.60;99.90;;;;;;4889527;29;21005;-91
2022/08/26 04:01:17;;;;;;;0.10;0.00;;;18.60;99.90;;;;;;4893592;29;20540;-93
2022/08/26 04:03:58;;;;;;;0.10;0.10;;;18.60;99.90;;;;;;4892511;29;20445;-92
2022/08/26 04:06:44;;;;;;;0.10;0.10;;;18.80;99.90;;;;;;4894582;29;20197;-92
2022/08/26 04:09:16;;;;;;;0.10;0.10;;;18.80;99.90;;;;;;4890433;29;20977;-92
2022/08/26 04:11:43;;;;;;;0.10;0.00;;;18.70;99.90;;;;;;4893071;29;20478;-92
2022/08/26 04:14:13;;;;;;;0.10;0.10;;;18.80;99.90;;;;;;4898057;29;20556;-91
2022/08/26 04:16:40;;;;;;;0.10;0.10;;;18.80;99.90;;;;;;4897673;29;20457;-92
2022/08/26 04:19:07;;;;;;;0.10;0.00;;;18.80;99.90;;;;;;4894356;29;20449;-92
2022/08/26 04:21:32;;;;;;;0.10;0.10;;;18.80;99.90;;;;;;4897646;29;20456;-91
2022/08/26 04:23:58;;;;;;;0.10;0.10;;;18.90;99.90;;;;;;4898111;29;20453;-91
2022/08/26 04:26:24;;;;;;;0.10;0.00;;;18.70;99.90;;;;;;4896083;29;20189;-92
2022/08/26 04:28:52;;;;;;;0.10;0.10;;;18.70;99.90;;;;;;4895174;29;20338;-91
2022/08/26 04:31:18;;;;;;;0.10;0.10;;;18.70;99.90;;;;;;4889590;29;20465;-91
2022/08/26 04:33:45;;;;;;;0.10;0.10;;;18.70;99.90;;;;;;4895213;29;20456;-92
2022/08/26 04:36:11;;;;;;;0.10;0.10;;;18.60;99.90;;;;;;4891102;29;20200;-92
2022/08/26 04:38:37;;;;;;;0.10;0.10;;;18.70;99.90;;;;;;4895435;29;20445;-91
2022/08/26 04:41:06;;;;;;;0.10;0.00;;;18.80;99.90;;;;;;4896624;29;20197;-90
2022/08/26 04:43:32;;;;;;;0.10;0.00;;;18.70;99.90;;;;;;4896282;29;21346;-90
2022/08/26 04:46:00;;;;;;;0.10;0.00;;;18.80;99.90;;;;;;4895570;29;20485;-91
2022/08/26 04:48:28;;;;;;;0.10;0.00;;;18.70;99.90;;;;;;4890450;29;20244;-90
2022/08/26 04:50:54;;;;;;;0.10;0.10;;;18.80;99.90;;;;;;4896367;29;20499;-91
2022/08/26 04:53:20;;;;;;;0.10;0.00;;;18.80;99.90;;;;;;4889802;29;20453;-92
2022/08/26 04:55:46;;;;;;;0.10;0.10;;;18.80;99.90;;;;;;4893373;29;20456;-92
2022/08/26 04:58:15;;;;;;;0.10;0.10;;;19.00;99.90;;;;;;4894720;29;21137;-90
2022/08/26 05:00:46;;;;;;;0.10;0.10;;;19.00;99.90;;;;;;4887835;29;22340;-91
2022/08/26 05:03:12;;;;;;;0.10;0.00;;;19.00;99.90;;;;;;4891832;29;20454;-91
2022/08/26 05:05:42;;;;;;;0.10;0.10;;;19.10;99.90;;;;;;4888424;29;20458;-92
2022/08/26 05:08:09;;;;;;;0.10;0.00;;;19.20;99.90;;;;;;4892895;29;20445;-92
2022/08/26 05:10:42;;;;;;;0.10;0.00;;;19.20;99.90;;;;;;4893757;29;20504;-89
2022/08/26 05:13:08;;;;;;;0.10;0.10;;;19.30;99.90;;;;;;4890379;29;20474;-89
2022/08/26 05:15:35;;;;;;;0.10;0.00;;;19.30;99.90;;;;;;4892681;29;20564;-89
2022/08/26 05:18:05;;;;;;;0.10;0.00;;;19.30;99.90;;;;;;4893485;29;20257;-88
2022/08/26 05:20:32;;;;;;;0.10;0.00;;;19.30;99.90;;;;;;4906018;29;20449;-89
2022/08/26 05:22:59;;;;;;;0.10;0.00;;;19.30;99.90;;;;;;4888731;29;20465;-87
2022/08/26 05:25:26;;;;;;;0.10;0.10;;;19.40;99.90;;;;;;4893786;29;20449;-88
2022/08/26 05:27:52;;;;;;;0.10;0.10;;;19.40;99.90;;;;;;4891667;29;20528;-89
2022/08/26 05:30:17;;;;;;;0.10;0.00;;;19.50;99.90;;;;;;4886730;29;20606;-88
2022/08/26 05:32:43;;;;;;;0.10;0.00;;;19.50;99.90;;;;;;4892888;29;20189;-87
2022/08/26 05:35:08;;;;;;;0.10;0.00;;;19.60;99.90;;;;;;4892836;29;20205;-88
2022/08/26 05:37:36;;;;;;;0.10;0.10;;;19.70;99.90;;;;;;4894723;29;20196;-87
2022/08/26 05:40:03;;;;;;;0.10;0.10;;;19.50;99.90;;;;;;4895849;29;20193;-88
2022/08/26 05:42:29;;;;;;;0.10;0.00;;;19.50;99.90;;;;;;4895776;29;20441;-88
2022/08/26 05:44:55;;;;;;;0.10;0.00;;;19.60;99.90;;;;;;4892018;29;20456;-88
2022/08/26 05:47:20;;;;;;;0.10;0.10;;;19.70;99.90;;;;;;4895245;29;20238;-87
2022/08/26 05:49:46;;;;;;;0.10;0.00;;;19.70;99.90;;;;;;4892203;29;20592;-88
2022/08/26 05:52:12;;;;;;;0.10;0.00;;;19.80;99.90;;;;;;4893626;29;20232;-88
2022/08/26 05:54:38;;;;;;;0.10;0.10;;;19.90;99.90;;;;;;4891494;29;20225;-87
2022/08/26 05:57:04;;;;;;;0.10;0.00;;;19.90;99.90;;;;;;4887066;29;20201;-88
2022/08/26 05:59:29;;;;;;;0.10;0.00;;;19.90;99.90;;;;;;4892543;29;20974;-87
2022/08/26 06:01:55;;;;;;;0.10;0.00;;;20.00;99.90;;;;;;4892875;29;20588;-87
2022/08/26 06:04:21;;;;;;;0.10;0.00;;;20.00;99.90;;;;;;4892004;29;20224;-87
2022/08/26 06:06:47;;;;;;;0.10;0.00;;;20.10;99.90;;;;;;4895144;29;20201;-87
2022/08/26 06:09:13;;;;;;;0.10;0.00;;;20.10;99.90;;;;;;4894838;29;20491;-88
2022/08/26 06:11:39;;;;;;;0.10;0.00;;;20.20;99.90;;;;;;4893826;29;20276;-88
2022/08/26 06:14:06;;;;;;;0.10;0.00;;;20.30;99.90;;;;;;4923630;29;20201;-90
2022/08/26 06:16:37;;;;;;;0.10;0.00;;;20.40;99.90;;;;;;4894369;29;20453;-90
2022/08/26 06:19:04;;;;;;;0.10;0.00;;;20.30;99.90;;;;;;4891982;29;20451;-90
2022/08/26 06:21:35;;;;;;;0.10;0.00;;;20.40;99.90;;;;;;4891066;29;20553;-90
2022/08/26 06:26:55;;;;;;;0.10;0.00;;;20.50;99.90;;;;;;4889856;29;21016;-90
2022/08/26 06:29:23;;;;;;;0.10;0.00;;;20.60;99.90;;;;;;4884935;29;20476;-91
2022/08/26 06:31:49;;;;;;;0.10;0.10;;;20.70;99.90;;;;;;4884220;29;21205;-92
2022/08/26 06:34:15;;;;;;;0.10;0.10;;;20.80;99.90;;;;;;4893179;29;20492;-91
2022/08/26 06:36:42;;;;;;;0.10;0.00;;;20.70;99.90;;;;;;4894489;29;20457;-90
2022/08/26 06:39:10;;;;;;;0.10;0.00;;;20.70;99.90;;;;;;4898650;29;20512;-90
2022/08/26 06:41:37;;;;;;;0.10;0.00;;;20.50;99.90;;;;;;4892466;29;20481;-90
2022/08/26 06:44:05;;;;;;;0.10;0.00;;;20.40;99.90;;;;;;4891406;29;20459;-89
2022/08/26 06:46:32;;;;;;;0.10;0.00;;;20.40;99.90;;;;;;4891962;29;20801;-91
2022/08/26 06:48:58;;;;;;;0.10;0.00;;;20.40;99.90;;;;;;4892633;29;20519;-90
2022/08/26 06:51:27;;;;;;;0.10;0.00;;;20.40;99.90;;;;;;4888125;29;20877;-92
2022/08/26 06:53:54;;;;;;;0.10;0.00;;;20.60;99.90;;;;;;4890407;29;20197;-90
2022/08/26 06:56:23;;;;;;;0.10;0.00;;;20.50;99.90;;;;;;4890928;29;20462;-89
2022/08/26 06:58:50;;;;;;;0.10;0.00;;;20.80;99.90;;;;;;4895107;29;21267;-92
2022/08/26 07:01:22;;;;;;;0.10;0.00;;;20.90;99.90;;;;;;4888520;29;20453;-92
2022/08/26 07:03:49;;;;;;;0.10;0.00;;;20.80;99.90;;;;;;4893349;29;21267;-90
2022/08/26 07:06:18;;;;;;;0.10;0.00;;;20.90;99.90;;;;;;4895782;29;20449;-92
2022/08/26 07:08:47;;;;;;;0.10;0.00;;;21.00;99.90;;;;;;4886290;29;20648;-88
2022/08/26 07:11:13;;;;;;;0.10;0.00;;;21.20;99.90;;;;;;4884458;29;20493;-91
2022/08/26 07:13:39;;;;;;;0.10;0.00;;;21.20;99.90;;;;;;4894607;29;20460;-90
2022/08/26 07:16:07;;;;;;;0.10;0.00;;;21.50;99.90;;;;;;4888402;29;20497;-89
2022/08/26 07:18:34;;;;;;;0.10;0.00;;;21.60;99.90;;;;;;4883240;29;20185;-88
2022/08/26 07:21:06;;;;;;;0.10;0.00;;;21.70;99.90;;;;;;4889551;29;20531;-91
2022/08/26 07:23:33;;;;;;;0.10;0.00;;;21.60;99.90;;;;;;4893653;29;20555;-88
2022/08/26 07:25:58;;;;;;;0.10;0.00;;;21.60;99.90;;;;;;4889019;29;20460;-89
2022/08/26 07:28:24;;;;;;;0.10;0.00;;;21.60;99.90;;;;;;4890740;29;20448;-89
2022/08/26 07:30:50;;;;;;;0.10;0.00;;;21.70;99.90;;;;;;4888192;29;20225;-90
2022/08/26 07:33:16;;;;;;;0.10;0.00;;;22.00;99.90;;;;;;4888070;29;20459;-88
2022/08/26 07:35:43;;;;;;;0.10;0.00;;;22.20;99.90;;;;;;4892044;29;20275;-90
2022/08/26 07:38:09;;;;;;;0.10;0.00;;;22.00;99.90;;;;;;4892130;29;20563;-90
2022/08/26 07:40:36;;;;;;;0.10;0.00;;;21.90;99.90;;;;;;4890002;29;20489;-86
2022/08/26 07:43:02;;;;;;;0.10;0.00;;;21.70;99.90;;;;;;4893157;29;20457;-88
2022/08/26 07:45:27;;;;;;;0.10;0.00;;;21.70;99.90;;;;;;4889134;29;20446;-88
2022/08/26 07:47:53;;;;;;;0.10;0.00;;;21.90;99.90;;;;;;4893348;29;20464;-88
2022/08/26 07:50:21;;;;;;;0.10;0.00;;;22.00;99.90;;;;;;4895332;29;20283;-87
2022/08/26 07:52:47;;;;;;;0.10;0.00;;;22.00;99.90;;;;;;4895479;29;20181;-87
2022/08/26 07:55:12;;;;;;;0.10;0.00;;;22.30;99.90;;;;;;4893766;29;20992;-83
2022/08/26 07:57:38;;;;;;;0.10;0.00;;;22.30;99.90;;;;;;4893932;29;20522;-87
2022/08/26 08:00:07;;;;;;;0.10;0.00;;;22.30;99.90;;;;;;4891179;29;20201;-86
2022/08/26 08:02:32;;;;;;;0.10;0.00;;;22.90;99.90;;;;;;4891804;29;20196;-91
2022/08/26 08:04:58;;;;;;;0.10;0.00;;;23.20;99.90;;;;;;4892953;29;20465;-86
2022/08/26 08:07:24;;;;;;;0.10;0.00;;;23.20;99.90;;;;;;4893291;29;20839;-89
2022/08/26 08:09:50;;;;;;;0.10;0.00;;;23.10;99.90;;;;;;4894975;29;20213;-87
2022/08/26 08:12:17;;;;;;;0.10;0.00;;;23.30;99.90;;;;;;4893452;29;20457;-86
2022/08/26 08:14:45;;;;;;;0.10;0.00;;;23.70;99.90;;;;;;4892493;29;20248;-86
2022/08/26 08:17:12;;;;;;;0.10;0.00;;;23.80;99.90;;;;;;4893309;29;20485;-88
2022/08/26 08:19:38;;;;;;;0.10;0.00;;;23.90;99.90;;;;;;4892498;29;20544;-87
2022/08/26 08:22:04;;;;;;;0.10;0.00;;;24.00;99.90;;;;;;4892274;29;20524;-87
2022/08/26 08:24:32;;;;;;;0.10;0.00;;;24.10;99.90;;;;;;4894555;29;20206;-87
2022/08/26 08:26:58;;;;;;;0.10;0.00;;;24.10;99.90;;;;;;4892517;29;20456;-87
2022/08/26 08:29:23;;;;;;;0.10;0.00;;;24.30;99.90;;;;;;4892743;29;20480;-87
2022/08/26 08:31:50;;;;;;;0.10;0.00;;;24.40;99.90;;;;;;4894125;29;20430;-87
2022/08/26 08:34:17;;;;;;;0.10;0.00;;;24.70;99.90;;;;;;4891317;29;20193;-88
2022/08/26 08:36:45;;;;;;;0.10;0.00;;;25.00;99.90;;;;;;4895134;29;20926;-88
2022/08/26 08:39:11;;;;;;;0.00;0.00;;;25.20;99.90;;;;;;4894883;29;20778;-88
2022/08/26 08:41:59;;;;;;;0.10;0.00;;;25.10;99.90;;;;;;4895324;29;20958;-86
2022/08/26 08:44:25;;;;;;;0.10;0.00;;;25.30;99.90;;;;;;4895493;29;20424;-88
2022/08/26 08:47:00;;;;;;;0.10;0.00;;;25.50;99.90;;;;;;4894573;29;20922;-87
2022/08/26 08:49:27;;;;;;;0.10;0.00;;;25.70;99.90;;;;;;4894963;29;20348;-86
2022/08/26 08:52:10;;;;;;;0.10;0.00;;;26.00;99.90;;;;;;4894993;29;20441;-89
2022/08/26 08:54:36;;;;;;;0.10;0.00;;;26.00;99.90;;;;;;4895014;29;20935;-85
2022/08/26 08:57:17;;;;;;;0.10;0.00;;;26.00;99.90;;;;;;4892528;29;20556;-87
2022/08/26 09:00:07;;;;;;;0.10;0.00;;;26.00;99.90;;;;;;4898265;29;20188;-88
2022/08/26 09:02:39;;;;;;;0.10;0.00;;;26.00;99.90;;;;;;4897330;29;20447;-87
2022/08/26 09:05:20;;;;;;;0.10;0.00;;;25.70;99.90;;;;;;4895008;29;20449;-88
2022/08/26 09:07:57;;;;;;;0.10;0.00;;;25.60;99.90;;;;;;4898043;29;20914;-87
2022/08/26 09:10:35;;;;;;;0.10;0.00;;;26.20;99.90;;;;;;4893730;29;20488;-88
2022/08/26 09:13:09;;;;;;;0.10;0.00;;;26.20;99.90;;;;;;4898015;29;20973;-88
2022/08/26 09:15:49;;;;;;;0.10;0.00;;;26.10;99.90;;;;;;4895971;29;20487;-88
2022/08/26 09:18:21;;;;;;;0.10;0.00;;;25.80;99.90;;;;;;4897589;29;20488;-89
2022/08/26 09:21:02;;;;;;;0.10;0.00;;;26.30;99.90;;;;;;4895697;29;20442;-88
2022/08/26 09:23:31;;;;;;;0.10;0.00;;;26.40;99.90;;;;;;4898557;29;20449;-87
2022/08/26 09:26:00;;;;;;;0.10;0.00;;;26.00;99.90;;;;;;4909150;29;20449;-88
2022/08/26 09:28:29;;;;;;;0.10;0.00;;;25.70;99.90;;;;;;4894034;29;21048;-87
2022/08/26 09:31:13;;;;;;;0.10;0.00;;;25.80;99.90;;;;;;4894425;29;20488;-87
2022/08/26 09:33:40;;;;;;;0.10;0.00;;;26.40;99.90;;;;;;4892927;29;21019;-88
2022/08/26 09:36:22;;;;;;;0.10;0.00;;;26.50;99.90;;;;;;4896255;29;20483;-87
2022/08/26 09:38:51;;;;;;;0.10;0.00;;;26.70;99.90;;;;;;4892797;29;20453;-87
2022/08/26 09:41:32;;;;;;;0.10;0.00;;;27.10;99.90;;;;;;4894367;29;20927;-87
2022/08/26 09:44:16;;;;;;;0.10;0.00;;;27.50;99.90;;;;;;4893067;29;20453;-88
2022/08/26 09:46:51;;;;;;;0.10;0.00;;;28.00;99.90;;;;;;4907470;29;20563;-88
2022/08/26 09:49:25;;;;;;;0.10;0.00;;;28.30;99.90;;;;;;4892849;29;20485;-89
2022/08/26 09:52:19;;;;;;;0.10;0.00;;;28.30;99.90;;;;;;4896576;29;20835;-89
2022/08/26 09:55:03;;;;;;;0.10;0.00;;;28.10;99.90;;;;;;4896237;29;20451;-88
2022/08/26 09:57:31;;;;;;;0.10;0.00;;;27.20;99.90;;;;;;4892414;29;20800;-90
2022/08/26 09:59:59;;;;;;;0.10;0.00;;;26.70;99.90;;;;;;4894706;29;20452;-89
2022/08/26 10:02:31;;;;;;;0.10;0.00;;;26.50;99.90;;;;;;4893815;29;21088;-87
2022/08/26 10:04:59;;;;;;;0.10;0.00;;;26.00;99.90;;;;;;4894683;29;20461;-87
2022/08/26 10:07:34;;;;;;;0.10;0.00;;;26.10;99.90;;;;;;4911388;29;20962;-89
2022/08/26 10:10:03;;;;;;;0.10;0.00;;;26.20;99.90;;;;;;4894138;29;20535;-87
2022/08/26 10:12:33;;;;;;;0.10;0.00;;;26.20;99.90;;;;;;4895628;29;20480;-89
2022/08/26 10:15:06;;;;;;;0.10;0.00;;;26.10;99.90;;;;;;4896052;29;20501;-87
2022/08/26 10:17:50;;;;;;;0.10;0.00;;;26.00;99.90;;;;;;4895652;29;20964;-89
2022/08/26 10:20:24;;;;;;;0.10;0.00;;;26.00;99.90;;;;;;4892662;29;20453;-87
2022/08/26 10:23:12;;;;;;;0.10;0.00;;;26.10;99.90;;;;;;4894098;29;20461;-87
2022/08/26 10:25:46;;;;;;;0.10;0.00;;;26.70;99.90;;;;;;4894298;29;20452;-88
2022/08/26 10:28:47;;;;;;;0.10;0.00;;;27.50;99.90;;;;;;4911331;29;20464;-94
2022/08/26 10:31:43;;;;;;;0.10;0.00;;;27.50;99.90;;;;;;4902161;29;20563;-96
2022/08/26 10:34:10;;;;;;;0.10;0.00;;;27.70;99.90;;;;;;4905787;29;20446;-96
2022/08/26 10:36:50;;;;;;;0.10;0.00;;;28.30;99.90;;;;;;4916929;29;20970;-96
2022/08/26 10:39:34;;;;;;;0.10;0.00;;;29.30;99.90;;;;;;4916054;29;20480;-96
2022/08/26 10:42:05;;;;;;;0.10;0.00;;;30.20;99.90;;;;;;4885902;29;20434;-93
2022/08/26 10:44:34;;;;;;;0.10;0.00;;;30.60;99.90;;;;;;4895608;29;20445;-93
2022/08/26 10:47:08;;;;;;;0.10;0.00;;;30.40;99.90;;;;;;4908377;29;20461;-93
2022/08/26 10:49:34;;;;;;;0.10;0.00;;;29.80;99.90;;;;;;4885932;29;20491;-96
2022/08/26 10:52:08;;;;;;;0.10;0.00;;;29.30;99.90;;;;;;4902028;29;20453;-93
2022/08/26 10:54:50;;;;;;;0.10;0.00;;;29.00;99.90;;;;;;4899020;29;20457;-95
2022/08/26 10:57:26;;;;;;;0.10;0.00;;;28.20;99.90;;;;;;4902029;29;20433;-96
2022/08/26 11:01:40;;;;;;;0.10;0.00;;;27.70;99.90;;;;;;4907019;29;20432;-96
2022/08/26 11:02:58;;;;;;;0.10;0.00;;;27.70;99.90;;;;;;4904149;29;20449;-95
2022/08/26 11:05:24;;;;;;;0.10;0.00;;;27.40;99.90;;;;;;4897966;29;20513;-94
2022/08/26 11:07:53;;;;;;;0.10;0.00;;;27.40;99.90;;;;;;4896931;29;20449;-94
2022/08/26 11:10:18;;;;;;;0.10;0.00;;;27.50;99.90;;;;;;4892085;29;20222;-95
2022/08/26 11:12:44;;;;;;;0.10;0.00;;;27.90;99.90;;;;;;4896647;29;20526;-94
2022/08/26 11:15:19;;;;;;;0.10;0.00;;;28.80;99.90;;;;;;4897333;29;20296;-94
2022/08/26 11:17:44;;;;;;;0.10;0.00;;;29.30;99.90;;;;;;4894583;29;20209;-94
2022/08/26 11:20:22;;;;;;;0.10;0.00;;;29.30;99.90;;;;;;4900529;29;20449;-96
2022/08/26 11:22:49;;;;;;;0.10;0.00;;;30.00;99.90;;;;;;4897988;29;20189;-93
2022/08/26 11:25:16;;;;;;;0.10;0.00;;;30.70;99.90;;;;;;4916851;29;21052;-95
2022/08/26 11:27:45;;;;;;;0.10;0.00;;;31.10;99.90;;;;;;4898911;29;20536;-95
2022/08/26 11:30:16;;;;;;;0.10;0.00;;;30.20;99.90;;;;;;4900870;29;20591;-92
2022/08/26 11:32:42;;;;;;;0.10;0.00;;;29.50;99.90;;;;;;4896606;29;20479;-92
2022/08/26 11:35:16;;;;;;;0.10;0.00;;;28.80;99.90;;;;;;4895488;29;21017;-94
2022/08/26 11:38:02;;;;;;;0.10;0.00;;;29.20;99.90;;;;;;4896551;29;20191;-93
2022/08/26 11:40:37;;;;;;;0.10;0.00;;;29.40;99.90;;;;;;4894839;29;20426;-93
2022/08/26 11:43:12;;;;;;;0.10;0.00;;;29.00;99.90;;;;;;4897599;29;20913;-92
2022/08/26 11:45:58;;;;;;;0.10;0.00;;;28.60;99.90;;;;;;4896266;29;20448;-93
2022/08/26 11:48:32;;;;;;;0.10;0.00;;;28.40;99.90;;;;;;4893444;29;21117;-93
2022/08/26 11:51:01;;;;;;;0.10;0.00;;;28.40;99.90;;;;;;4893935;29;20484;-94
2022/08/26 11:53:28;;;;;;;0.10;0.00;;;28.20;99.90;;;;;;4892360;29;20480;-91
2022/08/26 11:55:55;;;;;;;0.10;0.00;;;27.90;99.90;;;;;;4894962;29;20456;-94
2022/08/26 11:58:23;;;;;;;0.10;0.00;;;27.70;99.90;;;;;;4897303;29;20858;-91
2022/08/26 12:00:54;;;;;;;0.10;0.00;;;27.60;99.90;;;;;;4891140;29;20441;-94
2022/08/26 12:03:24;;;;;;;0.10;0.00;;;28.10;99.90;;;;;;4909504;29;20457;-91
2022/08/26 12:05:51;;;;;;;0.10;0.00;;;29.40;99.90;;;;;;4892598;29;20441;-96
2022/08/26 12:08:22;;;;;;;0.10;0.00;;;30.10;99.90;;;;;;4896786;29;20465;-92
2022/08/26 12:10:47;;;;;;;0.10;0.00;;;30.00;99.90;;;;;;4892264;29;20507;-92
2022/08/26 12:13:23;;;;;;;0.10;0.00;;;29.60;99.90;;;;;;4894697;29;20453;-94
2022/08/26 12:15:57;;;;;;;0.10;0.00;;;29.10;99.90;;;;;;4897767;29;20243;-94
2022/08/26 12:18:28;;;;;;;0.10;0.00;;;28.20;99.90;;;;;;4883608;29;20438;-96
2022/08/26 12:20:55;;;;;;;0.10;0.00;;;27.80;99.90;;;;;;4896180;29;20450;-96
2022/08/26 12:23:46;;;;;;;0.10;0.00;;;27.70;99.90;;;;;;4896450;29;20442;-96
2022/08/26 12:26:26;;;;;;;0.10;0.00;;;27.70;99.90;;;;;;4904000;29;20544;-96
2022/08/26 12:29:01;;;;;;;0.10;0.00;;;27.90;99.90;;;;;;4895337;29;20448;-96
2022/08/26 12:31:36;;;;;;;0.10;0.00;;;27.70;99.90;;;;;;4897733;29;20461;-96
2022/08/26 12:34:05;;;;;;;0.10;0.00;;;27.50;99.90;;;;;;4889343;29;20449;-96
2022/08/26 12:36:36;;;;;;;0.10;0.00;;;27.40;99.90;;;;;;4900311;29;20493;-93
2022/08/26 12:39:34;;;;;;;0.10;0.00;;;27.10;99.90;;;;;;4909175;29;20436;-92
2022/08/26 12:42:14;;;;;;;0.10;0.00;;;27.00;99.90;;;;;;4895796;29;20460;-93
2022/08/26 12:44:57;;;;;;;0.10;0.00;;;26.70;99.90;;;;;;4896165;29;20453;-94
2022/08/26 12:47:41;;;;;;;0.10;0.00;;;26.60;99.90;;;;;;4895944;29;20452;-94
2022/08/26 12:50:29;;;;;;;0.10;0.00;;;26.50;99.90;;;;;;4904669;29;20493;-94
2022/08/26 12:53:02;;;;;;;0.10;0.00;;;26.40;99.90;;;;;;4900109;29;21017;-94
2022/08/26 12:55:41;;;;;;;0.10;0.00;;;26.20;99.90;;;;;;4898009;29;20452;-89
2022/08/26 12:58:23;;;;;;;0.10;0.00;;;26.00;99.90;;;;;;4897140;29;20508;-94
2022/08/26 13:00:56;;;;;;;0.10;0.00;;;25.90;99.90;;;;;;4898109;29;20453;-89
2022/08/26 13:03:37;;;;;;;0.10;0.00;;;25.70;99.90;;;;;;4897562;29;20448;-92
2022/08/26 13:06:11;;;;;;;0.10;0.00;;;25.40;99.90;;;;;;4898584;29;20509;-92
2022/08/26 13:08:47;;;;;;;0.10;0.00;;;25.30;99.90;;;;;;4894878;29;20449;-93